createdAt,value
2022-08-22T00:01:59.517Z,4.87
2022-08-22T00:03:01.015Z,1.30
2022-08-22T00:03:06.691Z,3.77
2022-08-22T00:03:10.896Z,2.28
2022-08-22T00:03:12.110Z,6.43
2022-08-22T00:03:15.129Z,5.07
2022-08-22T00:04:38.701Z,7.37
2022-08-22T00:07:12.643Z,4.27
2022-08-22T00:09:57.503Z,6.47
2022-08-22T00:12:35.677Z,5.10
2022-08-22T00:15:27.932Z,4.73
2022-08-22T00:18:10.244Z,6.07
2022-08-22T00:20:44.570Z,4.73
2022-08-22T00:23:18.468Z,4.80
2022-08-22T00:25:54.292Z,5.57
2022-08-22T00:28:26.384Z,7.27
2022-08-22T00:30:59.481Z,4.70
2022-08-22T00:33:37.733Z,6.67
2022-08-22T00:36:15.503Z,4.80
2022-08-22T00:38:48.591Z,4.20
2022-08-22T00:41:30.425Z,4.10
2022-08-22T00:44:15.661Z,5.97
2022-08-22T00:47:09.347Z,5.53
2022-08-22T00:49:58.655Z,4.67
2022-08-22T00:53:04.280Z,3.97
2022-08-22T00:55:45.259Z,4.60
2022-08-22T00:58:40.551Z,5.87
2022-08-22T01:01:11.484Z,7.70
2022-08-22T01:04:09.668Z,6.27
2022-08-22T01:06:48.718Z,5.93
2022-08-22T01:09:37.529Z,6.93
2022-08-22T01:12:30.934Z,3.93
2022-08-22T01:15:03.072Z,5.67
2022-08-22T01:17:54.622Z,4.70
2022-08-22T01:20:51.974Z,4.50
2022-08-22T01:24:24.207Z,6.00
2022-08-22T01:27:17.541Z,4.43
2022-08-22T01:30:14.438Z,4.87
2022-08-22T01:33:16.055Z,9.37
2022-08-22T01:36:16.533Z,6.20
2022-08-22T01:39:02.623Z,5.57
2022-08-22T01:42:11.574Z,4.60
2022-08-22T01:45:29.221Z,6.37
2022-08-22T01:48:00.975Z,4.47
2022-08-22T01:50:35.300Z,5.30
2022-08-22T01:53:09.773Z,4.43
2022-08-22T01:55:43.525Z,4.77
2022-08-22T01:58:19.305Z,5.83
2022-08-22T02:01:08.436Z,5.00
2022-08-22T02:03:44.358Z,5.63
2022-08-22T02:06:18.163Z,7.23
2022-08-22T02:08:55.402Z,4.90
2022-08-22T02:11:39.034Z,4.70
2022-08-22T02:14:18.528Z,5.53
2022-08-22T02:16:50.523Z,4.23
2022-08-22T02:19:29.374Z,6.27
2022-08-22T02:22:02.754Z,4.20
2022-08-22T02:24:49.136Z,7.73
2022-08-22T02:27:27.191Z,6.80
2022-08-22T02:30:06.150Z,6.43
2022-08-22T02:32:46.190Z,4.33
2022-08-22T02:35:25.456Z,4.97
2022-08-22T02:38:07.303Z,4.57
2022-08-22T02:40:42.544Z,4.77
2022-08-22T02:43:20.324Z,4.90
2022-08-22T02:45:54.302Z,5.07
2022-08-22T02:48:35.442Z,4.30
2022-08-22T02:51:11.826Z,5.83
2022-08-22T02:53:49.489Z,7.33
2022-08-22T02:56:23.256Z,7.33
2022-08-22T02:58:59.082Z,4.43
2022-08-22T03:01:43.217Z,4.90
2022-08-22T03:04:25.295Z,5.27
2022-08-22T03:07:15.957Z,4.93
2022-08-22T03:09:50.386Z,5.27
2022-08-22T03:12:28.707Z,5.63
2022-08-22T03:15:03.525Z,5.50
2022-08-22T03:17:38.517Z,4.43
2022-08-22T03:20:13.514Z,4.80
2022-08-22T03:22:49.708Z,7.97
2022-08-22T03:25:31.808Z,5.93
2022-08-22T03:28:07.250Z,4.83
2022-08-22T03:30:50.995Z,5.03
2022-08-22T03:33:32.394Z,5.70
2022-08-22T03:36:15.947Z,6.27
2022-08-22T03:39:07.288Z,6.27
2022-08-22T03:41:57.602Z,5.90
2022-08-22T03:44:51.358Z,5.80
2022-08-22T03:47:54.036Z,5.20
2022-08-22T03:50:56.429Z,6.87
2022-08-22T03:53:39.310Z,5.53
2022-08-22T03:56:44.162Z,7.43
2022-08-22T03:59:32.808Z,5.60
2022-08-22T04:02:43.837Z,8.90
2022-08-22T04:05:44.797Z,5.17
2022-08-22T04:08:45.245Z,5.23
2022-08-22T04:11:31.551Z,6.03
2022-08-22T04:14:13.612Z,5.63
2022-08-22T04:17:28.279Z,5.07
2022-08-22T04:20:31.431Z,4.43
2022-08-22T04:23:28.837Z,5.70
2022-08-22T04:26:12.137Z,4.87
2022-08-22T04:28:46.546Z,5.37
2022-08-22T04:31:23.034Z,8.10
2022-08-22T04:33:55.420Z,6.90
2022-08-22T04:36:31.670Z,5.13
2022-08-22T04:39:06.169Z,4.43
2022-08-22T04:41:48.280Z,5.77
2022-08-22T04:44:24.038Z,7.37
2022-08-22T04:46:59.440Z,5.20
2022-08-22T04:49:38.481Z,4.73
2022-08-22T04:52:18.467Z,6.60
2022-08-22T04:55:04.443Z,5.57
2022-08-22T04:57:48.346Z,6.67
2022-08-22T05:00:17.829Z,6.93
2022-08-22T05:02:51.323Z,5.80
2022-08-22T05:05:24.619Z,5.00
2022-08-22T05:07:58.678Z,5.37
2022-08-22T05:10:29.712Z,4.57
2022-08-22T05:13:02.517Z,5.37
2022-08-22T05:15:35.550Z,5.87
2022-08-22T05:18:09.461Z,5.10
2022-08-22T05:20:42.131Z,5.23
2022-08-22T05:23:18.901Z,4.27
2022-08-22T05:25:57.553Z,5.07
2022-08-22T05:28:33.966Z,5.20
2022-08-22T05:31:18.761Z,6.73
2022-08-22T05:33:55.757Z,4.87
2022-08-22T05:36:29.391Z,6.33
2022-08-22T05:39:20.767Z,5.80
2022-08-22T05:41:52.218Z,5.13
2022-08-22T05:44:27.094Z,5.90
2022-08-22T05:47:09.107Z,5.20
2022-08-22T05:49:49.824Z,6.97
2022-08-22T05:52:46.889Z,4.83
2022-08-22T05:55:31.359Z,5.10
2022-08-22T06:00:58.081Z,4.37
2022-08-22T06:03:32.128Z,5.70
2022-08-22T06:06:03.992Z,5.53
2022-08-22T06:08:36.194Z,5.90
2022-08-22T06:11:13.165Z,5.23
2022-08-22T06:13:47.354Z,4.77
2022-08-22T06:16:20.611Z,4.83
2022-08-22T06:18:51.402Z,5.20
2022-08-22T06:21:22.871Z,5.57
2022-08-22T06:23:56.763Z,9.00
2022-08-22T06:26:31.157Z,7.10
2022-08-22T06:29:01.594Z,5.97
2022-08-22T06:31:34.134Z,5.73
2022-08-22T06:34:06.285Z,4.63
2022-08-22T06:36:37.103Z,4.93
2022-08-22T06:39:12.453Z,4.77
2022-08-22T06:41:47.493Z,5.97
2022-08-22T06:44:19.283Z,3.92
2022-08-22T06:46:50.244Z,7.90
2022-08-22T06:49:18.794Z,5.23
2022-08-22T06:51:49.116Z,6.10
2022-08-22T06:54:20.358Z,4.85
2022-08-22T06:56:52.391Z,8.45
2022-08-22T06:59:25.424Z,7.00
2022-08-22T07:01:56.229Z,6.95
2022-08-22T07:04:26.747Z,6.70
2022-08-22T07:06:58.396Z,10.48
2022-08-22T07:09:30.255Z,6.05
2022-08-22T07:12:02.882Z,7.70
2022-08-22T07:14:33.661Z,7.13
2022-08-22T07:17:05.590Z,5.20
2022-08-22T07:19:36.199Z,5.63
2022-08-22T07:22:14.002Z,4.95
2022-08-22T07:24:48.060Z,4.40
2022-08-22T07:27:29.751Z,5.25
2022-08-22T07:30:34.383Z,5.90
2022-08-22T07:33:26.726Z,6.75
2022-08-22T07:36:00.491Z,4.95
2022-08-22T07:38:42.548Z,4.60
2022-08-22T07:41:15.990Z,3.97
2022-08-22T07:43:49.061Z,7.00
2022-08-22T07:46:27.159Z,5.57
2022-08-22T07:49:09.112Z,4.13
2022-08-22T07:51:45.050Z,4.07
2022-08-22T07:54:16.623Z,6.72
2022-08-22T07:56:52.877Z,5.53
2022-08-22T07:59:23.158Z,6.72
2022-08-22T08:01:54.486Z,2.97
2022-08-22T08:08:10.134Z,4.53
2022-08-22T08:10:43.834Z,4.75
2022-08-22T08:13:19.328Z,3.50
2022-08-22T08:15:50.889Z,3.47
2022-08-22T08:18:23.370Z,2.83
2022-08-22T08:20:54.616Z,3.80
2022-08-22T08:23:24.082Z,4.47
2022-08-22T08:26:01.332Z,4.40
2022-08-22T08:28:34.760Z,3.67
2022-08-22T08:31:14.752Z,3.83
2022-08-22T08:33:45.977Z,3.80
2022-08-22T08:36:41.549Z,2.72
2022-08-22T08:39:23.942Z,5.15
2022-08-22T08:42:21.929Z,3.42
2022-08-22T08:45:07.687Z,2.50
2022-08-22T08:48:07.485Z,3.78
2022-08-22T08:50:51.461Z,4.22
2022-08-22T08:53:53.073Z,2.53
2022-08-22T08:56:29.974Z,2.65
2022-08-22T08:59:10.317Z,2.35
2022-08-22T09:02:06.344Z,1.85
2022-08-22T09:05:02.983Z,2.00
2022-08-22T09:08:37.287Z,2.20
2022-08-22T09:11:32.274Z,1.70
2022-08-22T09:14:17.141Z,2.13
2022-08-22T09:17:14.926Z,1.83
2022-08-22T09:20:15.396Z,2.28
2022-08-22T09:23:20.367Z,2.20
2022-08-22T09:25:53.083Z,2.00
2022-08-22T09:28:30.807Z,2.67
2022-08-22T09:31:32.728Z,3.65
2022-08-22T09:34:12.522Z,2.55
2022-08-22T09:37:04.449Z,2.88
2022-08-22T09:39:36.281Z,2.63
2022-08-22T09:42:14.935Z,4.75
2022-08-22T09:44:56.120Z,4.20
2022-08-22T09:47:32.639Z,3.70
2022-08-22T09:50:13.688Z,2.53
2022-08-22T09:52:54.754Z,4.45
2022-08-22T09:55:40.376Z,2.60
2022-08-22T09:58:17.404Z,4.18
2022-08-22T10:00:54.973Z,4.65
2022-08-22T10:03:33.779Z,3.13
2022-08-22T10:06:05.663Z,2.80
2022-08-22T10:08:48.510Z,4.00
2022-08-22T10:11:25.859Z,3.60
2022-08-22T10:14:02.375Z,4.88
2022-08-22T10:16:58.168Z,5.30
2022-08-22T10:19:31.990Z,4.30
2022-08-22T10:22:21.462Z,2.33
2022-08-22T10:24:59.594Z,3.78
2022-08-22T10:27:43.864Z,5.00
2022-08-22T10:30:16.465Z,4.57
2022-08-22T10:32:48.269Z,7.38
2022-08-22T10:35:27.571Z,3.35
2022-08-22T10:38:00.214Z,3.08
2022-08-22T10:40:37.899Z,1.77
2022-08-22T10:43:13.120Z,4.68
2022-08-22T10:45:44.787Z,3.00
2022-08-22T10:48:33.821Z,3.75
2022-08-22T10:51:16.501Z,2.72
2022-08-22T10:53:59.438Z,2.20
2022-08-22T10:56:36.037Z,2.63
2022-08-22T10:59:12.265Z,2.08
2022-08-22T11:01:48.872Z,1.65
2022-08-22T11:04:33.895Z,2.25
2022-08-22T11:07:39.405Z,1.55
2022-08-22T11:10:19.899Z,2.13
2022-08-22T11:13:05.789Z,4.80
2022-08-22T11:16:09.416Z,1.90
2022-08-22T11:19:02.075Z,1.50
2022-08-22T11:21:45.914Z,2.03
2022-08-22T11:24:35.558Z,2.00
2022-08-22T11:27:33.541Z,1.15
2022-08-22T11:30:18.686Z,2.90
2022-08-22T11:33:21.653Z,1.85
2022-08-22T11:36:15.100Z,3.70
2022-08-22T11:38:55.109Z,4.60
2022-08-22T11:41:27.403Z,4.13
2022-08-22T11:44:03.445Z,1.40
2022-08-22T11:46:37.102Z,1.65
2022-08-22T11:49:28.154Z,2.30
2022-08-22T11:52:18.050Z,1.58
2022-08-22T11:55:12.539Z,2.10
2022-08-22T11:57:44.966Z,3.50
2022-08-22T12:00:27.267Z,1.10
2022-08-22T12:03:23.181Z,1.85
2022-08-22T12:05:56.343Z,1.60
2022-08-22T12:09:13.045Z,5.47
2022-08-22T12:11:54.555Z,2.08
2022-08-22T12:14:30.058Z,1.88
2022-08-22T12:17:09.143Z,1.35
2022-08-22T12:20:05.730Z,2.42
2022-08-22T12:22:59.186Z,1.52
2022-08-22T12:25:47.910Z,2.97
2022-08-22T12:28:32.529Z,2.10
2022-08-22T12:31:09.341Z,1.35
2022-08-22T12:33:57.345Z,1.42
2022-08-22T12:36:49.816Z,1.80
2022-08-22T12:39:35.558Z,2.30
2022-08-22T12:42:31.548Z,3.65
2022-08-22T12:45:21.902Z,1.40
2022-08-22T12:48:08.500Z,1.35
2022-08-22T12:50:44.674Z,1.40
2022-08-22T12:53:41.391Z,2.63
2022-08-22T12:56:23.060Z,1.35
2022-08-22T12:59:17.932Z,1.80
2022-08-22T13:01:51.402Z,2.05
2022-08-22T13:04:32.624Z,1.30
2022-08-22T13:07:08.524Z,2.70
2022-08-22T13:09:39.894Z,0.88
2022-08-22T13:12:22.428Z,1.60
2022-08-22T13:14:55.372Z,2.78
2022-08-22T13:17:26.278Z,1.75
2022-08-22T13:20:00.500Z,1.00
2022-08-22T13:22:31.594Z,1.10
2022-08-22T13:25:04.741Z,1.08
2022-08-22T13:27:37.644Z,1.85
2022-08-22T13:30:22.006Z,0.90
2022-08-22T13:32:54.548Z,1.90
2022-08-22T13:35:26.306Z,2.65
2022-08-22T13:37:59.563Z,1.85
2022-08-22T13:40:30.843Z,1.58
2022-08-22T13:43:18.466Z,1.48
2022-08-22T13:45:56.742Z,3.38
2022-08-22T13:48:28.804Z,4.15
2022-08-22T13:51:08.138Z,3.88
2022-08-22T13:53:46.381Z,1.23
2022-08-22T13:56:30.129Z,2.47
2022-08-22T13:59:01.387Z,2.63
2022-08-22T14:01:39.009Z,4.28
2022-08-22T14:04:34.874Z,3.53
2022-08-22T14:07:28.218Z,1.10
2022-08-22T14:09:59.713Z,2.42
2022-08-22T14:12:50.082Z,1.55
2022-08-22T14:15:24.299Z,2.42
2022-08-22T14:17:57.551Z,2.13
2022-08-22T14:20:33.446Z,1.63
2022-08-22T14:23:07.189Z,1.65
2022-08-22T14:25:38.290Z,1.95
2022-08-22T14:28:10.274Z,1.45
2022-08-22T14:30:54.626Z,2.58
2022-08-22T14:33:32.414Z,1.13
2022-08-22T14:36:14.062Z,3.35
2022-08-22T14:38:48.283Z,1.50
2022-08-22T14:41:28.494Z,1.10
2022-08-22T14:44:23.332Z,1.23
2022-08-22T14:46:55.013Z,1.33
2022-08-22T14:49:48.011Z,1.30
2022-08-22T14:52:32.378Z,1.70
2022-08-22T14:55:19.231Z,4.00
2022-08-22T14:57:52.421Z,2.85
2022-08-22T15:00:31.246Z,0.85
2022-08-22T15:03:17.086Z,4.85
2022-08-22T15:05:51.059Z,1.48
2022-08-22T15:08:28.672Z,5.68
2022-08-22T15:11:09.917Z,1.77
2022-08-22T15:13:41.315Z,2.00
2022-08-22T15:16:19.979Z,1.55
2022-08-22T15:18:51.951Z,1.75
2022-08-22T15:21:24.729Z,3.17
2022-08-22T15:23:57.357Z,1.83
2022-08-22T15:26:30.749Z,1.30
2022-08-22T15:29:07.094Z,2.42
2022-08-22T15:31:35.913Z,1.95
2022-08-22T15:34:11.949Z,1.00
2022-08-22T15:37:07.893Z,1.50
2022-08-22T15:40:00.597Z,2.38
2022-08-22T15:42:34.134Z,1.75
2022-08-22T15:45:02.764Z,1.48
2022-08-22T15:47:38.126Z,3.95
2022-08-22T15:50:09.881Z,1.70
2022-08-22T15:53:10.257Z,3.40
2022-08-22T15:56:04.794Z,2.00
2022-08-22T15:58:37.213Z,1.10
2022-08-22T16:01:18.971Z,1.83
2022-08-22T16:03:56.440Z,0.98
2022-08-22T16:06:43.186Z,2.90
2022-08-22T16:09:36.113Z,1.63
2022-08-22T16:12:09.965Z,2.05
2022-08-22T16:14:50.818Z,4.30
2022-08-22T16:17:42.746Z,2.55
2022-08-22T16:20:45.970Z,1.75
2022-08-22T16:23:14.015Z,1.77
2022-08-22T16:26:16.623Z,1.73
2022-08-22T16:28:58.304Z,1.42
2022-08-22T16:31:30.483Z,1.48
2022-08-22T16:34:20.396Z,3.05
2022-08-22T16:36:51.396Z,2.10
2022-08-22T16:39:41.830Z,1.13
2022-08-22T16:42:34.746Z,1.25
2022-08-22T16:45:19.512Z,3.42
2022-08-22T16:47:52.817Z,3.85
2022-08-22T16:50:37.767Z,2.60
2022-08-22T16:53:10.093Z,2.90
2022-08-22T16:56:11.585Z,2.45
2022-08-22T16:59:19.622Z,1.10
2022-08-22T17:02:20.459Z,1.70
2022-08-22T17:05:03.216Z,1.55
2022-08-22T17:07:43.126Z,1.20
2022-08-22T17:10:36.697Z,2.80
2022-08-22T17:13:17.542Z,5.03
2022-08-22T17:16:00.758Z,1.52
2022-08-22T17:18:46.113Z,1.10
2022-08-22T17:21:25.662Z,1.42
2022-08-22T17:24:02.864Z,1.73
2022-08-22T17:26:41.815Z,1.65
2022-08-22T17:29:16.954Z,2.60
2022-08-22T17:31:51.784Z,1.63
2022-08-22T17:34:32.304Z,1.73
2022-08-22T17:37:11.580Z,1.48
2022-08-22T17:40:03.554Z,1.40
2022-08-22T17:42:46.932Z,2.67
2022-08-22T17:45:28.105Z,1.20
2022-08-22T17:48:03.246Z,3.72
2022-08-22T17:50:45.670Z,1.67
2022-08-22T17:53:23.600Z,2.05
2022-08-22T17:56:01.425Z,2.42
2022-08-22T17:58:43.280Z,1.70
2022-08-22T18:01:16.325Z,3.20
2022-08-22T18:03:52.019Z,2.03
2022-08-22T18:06:25.822Z,1.60
2022-08-22T18:09:15.236Z,4.78
2022-08-22T18:11:49.503Z,1.77
2022-08-22T18:14:28.727Z,3.95
2022-08-22T18:16:59.238Z,1.80
2022-08-22T18:19:41.139Z,1.55
2022-08-22T18:22:19.231Z,2.65
2022-08-22T18:24:54.381Z,2.10
2022-08-22T18:27:34.742Z,1.40
2022-08-22T18:30:16.879Z,1.27
2022-08-22T18:32:56.917Z,3.22
2022-08-22T18:35:31.204Z,1.35
2022-08-22T18:38:19.555Z,2.92
2022-08-22T18:40:53.373Z,2.20
2022-08-22T18:43:26.854Z,3.30
2022-08-22T18:46:04.566Z,1.45
2022-08-22T18:49:05.484Z,1.73
2022-08-22T18:51:38.359Z,1.48
2022-08-22T18:54:33.040Z,2.70
2022-08-22T18:57:08.847Z,1.63
2022-08-22T19:00:01.694Z,1.35
2022-08-22T19:02:58.622Z,3.95
2022-08-22T19:05:52.639Z,1.55
2022-08-22T19:08:56.566Z,2.05
2022-08-22T19:11:42.236Z,2.53
2022-08-22T19:14:43.175Z,2.00
2022-08-22T19:17:30.815Z,1.38
2022-08-22T19:20:24.998Z,3.95
2022-08-22T19:22:54.850Z,2.17
2022-08-22T19:25:27.073Z,3.13
2022-08-22T19:28:26.780Z,3.58
2022-08-22T19:31:22.721Z,3.25
2022-08-22T19:34:11.997Z,1.25
2022-08-22T19:36:40.328Z,2.50
2022-08-22T19:39:09.727Z,1.60
2022-08-22T19:41:45.349Z,1.17
2022-08-22T19:44:34.499Z,2.08
2022-08-22T19:47:26.868Z,1.67
2022-08-22T19:50:02.102Z,4.00
2022-08-22T19:52:52.701Z,1.85
2022-08-22T19:55:29.368Z,2.33
2022-08-22T19:58:06.224Z,1.63
2022-08-22T20:00:53.701Z,3.08
2022-08-22T20:03:32.979Z,4.38
2022-08-22T20:06:22.089Z,1.77
2022-08-22T20:09:14.332Z,3.78
2022-08-22T20:11:49.261Z,1.85
2022-08-22T20:14:30.561Z,1.85
2022-08-22T20:17:03.973Z,1.60
2022-08-22T20:19:42.662Z,1.55
2022-08-22T20:22:15.959Z,1.48
2022-08-22T20:24:49.123Z,1.60
2022-08-22T20:27:21.985Z,1.88
2022-08-22T20:29:55.842Z,1.33
2022-08-22T20:32:26.842Z,1.27
2022-08-22T20:34:58.716Z,1.70
2022-08-22T20:38:05.672Z,2.78
2022-08-22T20:40:54.981Z,1.90
2022-08-22T20:43:20.082Z,1.85
2022-08-22T20:46:00.538Z,3.13
2022-08-22T20:48:37.670Z,2.00
2022-08-22T20:51:06.909Z,2.50
2022-08-22T20:53:36.041Z,3.33
2022-08-22T20:56:07.073Z,1.77
2022-08-22T20:58:38.526Z,4.72
2022-08-22T21:01:08.223Z,1.83
2022-08-22T21:03:43.429Z,3.80
2022-08-22T21:06:14.411Z,3.03
2022-08-22T21:08:44.224Z,1.85
2022-08-22T21:11:40.744Z,2.10
2022-08-22T21:14:23.551Z,1.98
2022-08-22T21:16:51.931Z,1.75
2022-08-22T21:19:28.140Z,2.60
2022-08-22T21:22:12.160Z,3.58
2022-08-22T21:24:40.247Z,2.03
2022-08-22T21:27:08.711Z,1.73
2022-08-22T21:29:45.003Z,3.97
2022-08-22T21:32:24.586Z,3.63
2022-08-22T21:34:54.765Z,1.52
2022-08-22T21:37:28.717Z,1.67
2022-08-22T21:40:03.946Z,2.08
2022-08-22T21:42:35.605Z,2.00
2022-08-22T21:45:08.770Z,3.70
2022-08-22T21:47:40.030Z,1.60
2022-08-22T21:50:25.480Z,2.92
2022-08-22T21:53:06.677Z,1.90
2022-08-22T21:55:42.831Z,1.90
2022-08-22T21:58:36.773Z,2.13
2022-08-22T22:01:28.389Z,2.75
2022-08-22T22:03:57.753Z,2.58
2022-08-22T22:06:28.544Z,1.42
2022-08-22T22:08:56.458Z,3.45
2022-08-22T22:11:24.597Z,1.70
2022-08-22T22:13:52.810Z,1.80
2022-08-22T22:16:26.301Z,1.92
2022-08-22T22:18:54.736Z,2.47
2022-08-22T22:21:22.725Z,2.30
2022-08-22T22:23:52.601Z,2.30
2022-08-22T22:26:21.490Z,3.10
2022-08-22T22:28:50.215Z,3.75
2022-08-22T22:31:19.369Z,5.70
2022-08-22T22:33:47.389Z,2.40
2022-08-22T22:36:19.466Z,2.67
2022-08-22T22:38:48.488Z,2.40
2022-08-22T22:41:25.436Z,1.77
2022-08-22T22:43:54.069Z,2.05
2022-08-22T22:46:22.534Z,1.85
2022-08-22T22:48:50.622Z,2.33
2022-08-22T22:51:20.932Z,1.83
2022-08-22T22:53:49.718Z,1.85
2022-08-22T22:56:22.298Z,2.58
2022-08-22T22:59:00.859Z,2.65
2022-08-22T23:01:39.375Z,2.70
2022-08-22T23:04:09.103Z,1.90
2022-08-22T23:06:37.126Z,2.65
2022-08-22T23:09:05.484Z,2.63
2022-08-22T23:11:35.791Z,1.98
2022-08-22T23:14:03.828Z,1.90
2022-08-22T23:16:37.121Z,5.60
2022-08-22T23:19:09.538Z,2.60
2022-08-22T23:21:37.575Z,3.05
2022-08-22T23:24:06.147Z,1.98
2022-08-22T23:26:36.124Z,2.90
2022-08-22T23:29:06.309Z,3.45
2022-08-22T23:31:36.119Z,2.55
2022-08-22T23:34:10.246Z,2.30
2022-08-22T23:36:40.319Z,2.70
2022-08-22T23:39:09.526Z,2.53
2022-08-22T23:41:39.528Z,2.45
2022-08-22T23:44:09.787Z,1.98
2022-08-22T23:46:43.127Z,1.77
2022-08-22T23:49:11.364Z,2.25
2022-08-22T23:51:39.828Z,3.67
2022-08-22T23:54:08.081Z,3.22
2022-08-22T23:56:39.773Z,3.30
2022-08-22T23:59:10.155Z,2.55
